sensor_id;sensor_type;location;lat;lon;timestamp;pressure;altitude;pressure_sealevel;temperature;humidity
71621;BME280;59471;42.254;23.102;2023-07-29T00:01:15;95754.91;;;17.44;63.21
71621;BME280;59471;42.254;23.102;2023-07-29T00:03:40;95746.66;;;17.52;62.50
71621;BME280;59471;42.254;23.102;2023-07-29T00:06:06;95750.47;;;17.56;62.63
71621;BME280;59471;42.254;23.102;2023-07-29T00:08:32;95755.63;;;17.51;62.77
71621;BME280;59471;42.254;23.102;2023-07-29T00:10:57;95752.25;;;17.44;62.55
71621;BME280;59471;42.254;23.102;2023-07-29T00:13:23;95745.06;;;17.32;62.82
71621;BME280;59471;42.254;23.102;2023-07-29T00:15:48;95747.84;;;17.37;62.87
71621;BME280;59471;42.254;23.102;2023-07-29T00:18:14;95744.09;;;17.45;62.52
71621;BME280;59471;42.254;23.102;2023-07-29T00:20:39;95745.47;;;17.48;62.89
71621;BME280;59471;42.254;23.102;2023-07-29T00:23:05;95741.25;;;17.28;62.86
71621;BME280;59471;42.254;23.102;2023-07-29T00:25:30;95736.47;;;17.37;63.82
71621;BME280;59471;42.254;23.102;2023-07-29T00:27:56;95734.38;;;17.39;63.73
71621;BME280;59471;42.254;23.102;2023-07-29T00:30:21;95736.75;;;17.10;63.49
71621;BME280;59471;42.254;23.102;2023-07-29T00:32:47;95732.78;;;17.01;63.90
71621;BME280;59471;42.254;23.102;2023-07-29T00:35:12;95732.69;;;17.08;65.65
71621;BME280;59471;42.254;23.102;2023-07-29T00:37:38;95736.91;;;17.34;63.64
71621;BME280;59471;42.254;23.102;2023-07-29T00:40:12;95732.84;;;17.31;63.98
71621;BME280;59471;42.254;23.102;2023-07-29T00:42:41;95733.56;;;17.38;63.88
71621;BME280;59471;42.254;23.102;2023-07-29T00:45:08;95733.66;;;17.32;63.50
71621;BME280;59471;42.254;23.102;2023-07-29T00:47:34;95729.91;;;17.21;63.38
71621;BME280;59471;42.254;23.102;2023-07-29T00:50:00;95729.63;;;17.11;64.12
71621;BME280;59471;42.254;23.102;2023-07-29T00:52:26;95731.09;;;17.07;65.03
71621;BME280;59471;42.254;23.102;2023-07-29T00:54:52;95734.38;;;17.21;63.80
71621;BME280;59471;42.254;23.102;2023-07-29T00:57:17;95733.47;;;17.15;63.46
71621;BME280;59471;42.254;23.102;2023-07-29T00:59:44;95742.78;;;17.18;64.81
71621;BME280;59471;42.254;23.102;2023-07-29T01:02:10;95734.03;;;16.99;64.93
71621;BME280;59471;42.254;23.102;2023-07-29T01:04:35;95738.75;;;16.97;65.31
71621;BME280;59471;42.254;23.102;2023-07-29T01:15:42;95735.88;;;16.73;65.21
71621;BME280;59471;42.254;23.102;2023-07-29T01:18:18;95735.63;;;16.81;66.47
71621;BME280;59471;42.254;23.102;2023-07-29T01:20:48;95737.34;;;16.94;65.68
71621;BME280;59471;42.254;23.102;2023-07-29T01:23:33;95729.94;;;17.03;64.25
71621;BME280;59471;42.254;23.102;2023-07-29T01:26:00;95731.09;;;17.07;64.69
71621;BME280;59471;42.254;23.102;2023-07-29T01:28:27;95722.19;;;17.20;64.29
71621;BME280;59471;42.254;23.102;2023-07-29T01:31:10;95720.06;;;17.10;64.48
71621;BME280;59471;42.254;23.102;2023-07-29T01:33:56;95726.59;;;17.07;66.19
71621;BME280;59471;42.254;23.102;2023-07-29T01:36:28;95728.59;;;17.12;64.81
71621;BME280;59471;42.254;23.102;2023-07-29T01:38:56;95727.34;;;16.96;65.02
71621;BME280;59471;42.254;23.102;2023-07-29T04:15:02;95788.06;;;16.03;70.43
71621;BME280;59471;42.254;23.102;2023-07-29T04:17:28;95786.91;;;15.92;70.47
71621;BME280;59471;42.254;23.102;2023-07-29T04:19:53;95787.66;;;16.06;70.72
71621;BME280;59471;42.254;23.102;2023-07-29T04:22:19;95788.75;;;16.23;70.06
71621;BME280;59471;42.254;23.102;2023-07-29T04:24:44;95791.56;;;16.28;70.28
71621;BME280;59471;42.254;23.102;2023-07-29T04:27:10;95788.13;;;16.53;68.99
71621;BME280;59471;42.254;23.102;2023-07-29T04:29:35;95786.94;;;16.49;68.96
71621;BME280;59471;42.254;23.102;2023-07-29T04:32:02;95793.84;;;16.50;70.33
71621;BME280;59471;42.254;23.102;2023-07-29T04:34:28;95786.25;;;16.60;69.08
71621;BME280;59471;42.254;23.102;2023-07-29T04:36:54;95783.22;;;16.56;68.80
71621;BME280;59471;42.254;23.102;2023-07-29T04:39:19;95785.94;;;16.50;69.34
71621;BME280;59471;42.254;23.102;2023-07-29T04:41:45;95791.69;;;16.65;68.76
71621;BME280;59471;42.254;23.102;2023-07-29T04:44:10;95785.56;;;16.71;68.78
71621;BME280;59471;42.254;23.102;2023-07-29T04:46:36;95789.63;;;16.67;68.37
71621;BME280;59471;42.254;23.102;2023-07-29T04:49:02;95785.03;;;16.87;68.41
71621;BME280;59471;42.254;23.102;2023-07-29T04:51:28;95803.03;;;16.97;68.08
71621;BME280;59471;42.254;23.102;2023-07-29T04:53:53;95802.25;;;17.15;67.24
71621;BME280;59471;42.254;23.102;2023-07-29T04:56:19;95808.72;;;17.19;67.29
71621;BME280;59471;42.254;23.102;2023-07-29T04:58:44;95805.78;;;17.27;68.26
71621;BME280;59471;42.254;23.102;2023-07-29T05:01:10;95796.31;;;17.38;67.36
71621;BME280;59471;42.254;23.102;2023-07-29T05:03:36;95795.56;;;17.31;66.96
71621;BME280;59471;42.254;23.102;2023-07-29T05:06:02;95805.50;;;17.54;66.18
71621;BME280;59471;42.254;23.102;2023-07-29T05:08:28;95804.00;;;17.76;65.68
71621;BME280;59471;42.254;23.102;2023-07-29T05:10:54;95800.91;;;17.98;64.99
71621;BME280;59471;42.254;23.102;2023-07-29T05:13:20;95799.66;;;18.12;65.19
71621;BME280;59471;42.254;23.102;2023-07-29T05:15:47;95805.00;;;18.24;63.47
71621;BME280;59471;42.254;23.102;2023-07-29T05:18:13;95808.34;;;18.19;64.21
71621;BME280;59471;42.254;23.102;2023-07-29T05:20:39;95808.81;;;18.28;63.95
71621;BME280;59471;42.254;23.102;2023-07-29T05:23:05;95815.75;;;18.41;64.88
71621;BME280;59471;42.254;23.102;2023-07-29T05:25:30;95803.81;;;18.50;63.92
71621;BME280;59471;42.254;23.102;2023-07-29T05:27:56;95812.66;;;18.86;62.10
71621;BME280;59471;42.254;23.102;2023-07-29T05:30:22;95808.25;;;19.03;61.83
71621;BME280;59471;42.254;23.102;2023-07-29T05:32:48;95814.72;;;19.07;61.29
71621;BME280;59471;42.254;23.102;2023-07-29T05:35:13;95815.88;;;19.11;60.49
71621;BME280;59471;42.254;23.102;2023-07-29T05:37:40;95819.31;;;19.35;60.07
71621;BME280;59471;42.254;23.102;2023-07-29T05:40:06;95824.41;;;19.37;59.45
71621;BME280;59471;42.254;23.102;2023-07-29T05:42:33;95821.09;;;19.30;60.94
71621;BME280;59471;42.254;23.102;2023-07-29T05:44:59;95824.38;;;19.60;58.02
71621;BME280;59471;42.254;23.102;2023-07-29T05:47:25;95820.44;;;19.51;58.47
71621;BME280;59471;42.254;23.102;2023-07-29T05:49:51;95825.75;;;19.51;58.94
71621;BME280;59471;42.254;23.102;2023-07-29T05:52:17;95818.13;;;19.66;57.22
71621;BME280;59471;42.254;23.102;2023-07-29T05:54:42;95822.59;;;19.89;56.89
71621;BME280;59471;42.254;23.102;2023-07-29T05:57:12;95826.50;;;19.99;56.55
71621;BME280;59471;42.254;23.102;2023-07-29T05:59:38;95826.72;;;20.26;54.82
71621;BME280;59471;42.254;23.102;2023-07-29T06:02:04;95827.97;;;20.06;56.79
71621;BME280;59471;42.254;23.102;2023-07-29T06:04:30;95820.75;;;20.19;55.77
71621;BME280;59471;42.254;23.102;2023-07-29T06:06:55;95818.53;;;20.44;56.53
71621;BME280;59471;42.254;23.102;2023-07-29T06:09:22;95823.25;;;20.71;56.27
71621;BME280;59471;42.254;23.102;2023-07-29T06:11:47;95820.72;;;20.47;53.74
71621;BME280;59471;42.254;23.102;2023-07-29T06:14:13;95818.91;;;20.65;53.30
71621;BME280;59471;42.254;23.102;2023-07-29T06:16:38;95821.16;;;20.56;52.95
71621;BME280;59471;42.254;23.102;2023-07-29T06:19:04;95809.09;;;20.36;53.03
71621;BME280;59471;42.254;23.102;2023-07-29T06:21:30;95815.22;;;20.66;51.83
71621;BME280;59471;42.254;23.102;2023-07-29T06:23:56;95811.00;;;20.87;53.46
71621;BME280;59471;42.254;23.102;2023-07-29T06:26:21;95805.28;;;20.95;52.80
71621;BME280;59471;42.254;23.102;2023-07-29T06:28:47;95805.81;;;21.14;51.64
71621;BME280;59471;42.254;23.102;2023-07-29T06:31:12;95801.94;;;21.38;52.09
71621;BME280;59471;42.254;23.102;2023-07-29T06:33:38;95801.88;;;21.55;50.52
71621;BME280;59471;42.254;23.102;2023-07-29T06:36:04;95781.34;;;21.56;50.60
71621;BME280;59471;42.254;23.102;2023-07-29T06:38:29;95788.66;;;21.87;50.64
71621;BME280;59471;42.254;23.102;2023-07-29T06:40:55;95784.31;;;21.81;50.06
71621;BME280;59471;42.254;23.102;2023-07-29T06:43:21;95788.78;;;21.97;49.24
71621;BME280;59471;42.254;23.102;2023-07-29T06:45:46;95785.66;;;22.06;48.50
71621;BME280;59471;42.254;23.102;2023-07-29T06:48:12;95786.22;;;22.08;48.60
71621;BME280;59471;42.254;23.102;2023-07-29T06:50:37;95790.56;;;22.14;48.29
71621;BME280;59471;42.254;23.102;2023-07-29T06:53:03;95788.16;;;21.90;48.29
71621;BME280;59471;42.254;23.102;2023-07-29T06:55:28;95783.47;;;22.25;48.17
71621;BME280;59471;42.254;23.102;2023-07-29T06:57:54;95786.66;;;22.54;48.50
71621;BME280;59471;42.254;23.102;2023-07-29T07:00:20;95786.34;;;22.77;47.78
71621;BME280;59471;42.254;23.102;2023-07-29T07:02:45;95788.56;;;22.90;47.20
71621;BME280;59471;42.254;23.102;2023-07-29T07:05:11;95779.41;;;22.76;46.10
71621;BME280;59471;42.254;23.102;2023-07-29T07:07:36;95776.25;;;22.20;47.73
71621;BME280;59471;42.254;23.102;2023-07-29T07:10:03;95777.69;;;22.65;47.35
71621;BME280;59471;42.254;23.102;2023-07-29T07:12:29;95769.69;;;22.97;46.92
71621;BME280;59471;42.254;23.102;2023-07-29T07:14:54;95758.84;;;23.19;46.23
71621;BME280;59471;42.254;23.102;2023-07-29T07:17:20;95762.13;;;23.31;45.93
71621;BME280;59471;42.254;23.102;2023-07-29T07:19:45;95755.03;;;23.52;46.96
71621;BME280;59471;42.254;23.102;2023-07-29T07:22:11;95758.09;;;23.81;48.38
71621;BME280;59471;42.254;23.102;2023-07-29T07:24:37;95756.53;;;24.01;47.56
71621;BME280;59471;42.254;23.102;2023-07-29T07:27:02;95752.25;;;24.05;44.25
71621;BME280;59471;42.254;23.102;2023-07-29T07:29:28;95749.34;;;24.17;43.75
71621;BME280;59471;42.254;23.102;2023-07-29T07:31:56;95746.94;;;24.15;43.98
71621;BME280;59471;42.254;23.102;2023-07-29T07:34:22;95740.50;;;24.26;45.44
71621;BME280;59471;42.254;23.102;2023-07-29T07:36:47;95744.81;;;24.38;45.09
71621;BME280;59471;42.254;23.102;2023-07-29T07:39:14;95746.66;;;24.27;44.48
71621;BME280;59471;42.254;23.102;2023-07-29T07:41:41;95745.31;;;24.14;44.83
71621;BME280;59471;42.254;23.102;2023-07-29T07:44:07;95734.63;;;24.24;44.54
71621;BME280;59471;42.254;23.102;2023-07-29T07:46:33;95737.63;;;24.54;44.66
71621;BME280;59471;42.254;23.102;2023-07-29T07:48:58;95736.00;;;24.78;45.28
71621;BME280;59471;42.254;23.102;2023-07-29T07:51:24;95729.81;;;24.83;43.94
71621;BME280;59471;42.254;23.102;2023-07-29T07:53:49;95718.56;;;24.81;43.27
71621;BME280;59471;42.254;23.102;2023-07-29T07:56:15;95730.88;;;24.97;44.60
71621;BME280;59471;42.254;23.102;2023-07-29T07:58:40;95726.25;;;25.33;44.71
71621;BME280;59471;42.254;23.102;2023-07-29T08:01:07;95727.59;;;25.36;44.49
71621;BME280;59471;42.254;23.102;2023-07-29T08:03:34;95729.66;;;25.54;43.65
71621;BME280;59471;42.254;23.102;2023-07-29T08:06:00;95735.09;;;25.34;43.56
71621;BME280;59471;42.254;23.102;2023-07-29T08:08:27;95733.56;;;25.72;44.23
71621;BME280;59471;42.254;23.102;2023-07-29T08:10:53;95738.09;;;25.87;42.70
71621;BME280;59471;42.254;23.102;2023-07-29T08:13:23;95736.97;;;25.98;42.41
71621;BME280;59471;42.254;23.102;2023-07-29T08:15:50;95736.44;;;25.96;41.09
71621;BME280;59471;42.254;23.102;2023-07-29T08:18:17;95737.47;;;26.00;40.98
71621;BME280;59471;42.254;23.102;2023-07-29T08:23:20;95745.72;;;25.59;41.65
71621;BME280;59471;42.254;23.102;2023-07-29T08:25:53;95741.88;;;25.86;41.25
71621;BME280;59471;42.254;23.102;2023-07-29T08:28:21;95733.03;;;26.25;42.31
71621;BME280;59471;42.254;23.102;2023-07-29T08:30:47;95739.88;;;26.41;41.72
71621;BME280;59471;42.254;23.102;2023-07-29T08:33:13;95728.38;;;26.01;41.81
71621;BME280;59471;42.254;23.102;2023-07-29T08:35:38;95738.22;;;26.55;41.25
71621;BME280;59471;42.254;23.102;2023-07-29T08:38:04;95742.09;;;27.02;40.42
71621;BME280;59471;42.254;23.102;2023-07-29T08:40:30;95739.22;;;26.94;40.67
71621;BME280;59471;42.254;23.102;2023-07-29T08:42:58;95737.03;;;26.96;39.73
71621;BME280;59471;42.254;23.102;2023-07-29T08:45:27;95730.91;;;27.19;39.79
71621;BME280;59471;42.254;23.102;2023-07-29T08:47:54;95726.13;;;27.40;38.79
71621;BME280;59471;42.254;23.102;2023-07-29T08:50:24;95714.38;;;27.74;41.67
71621;BME280;59471;42.254;23.102;2023-07-29T08:52:51;95722.28;;;27.89;39.32
71621;BME280;59471;42.254;23.102;2023-07-29T08:55:18;95713.06;;;27.53;39.57
71621;BME280;59471;42.254;23.102;2023-07-29T08:57:44;95706.34;;;27.93;38.97
71621;BME280;59471;42.254;23.102;2023-07-29T09:00:11;95703.91;;;27.97;39.14
71621;BME280;59471;42.254;23.102;2023-07-29T09:02:37;95690.63;;;28.19;37.59
71621;BME280;59471;42.254;23.102;2023-07-29T09:05:03;95699.56;;;28.33;37.82
71621;BME280;59471;42.254;23.102;2023-07-29T09:07:28;95696.47;;;28.59;38.69
71621;BME280;59471;42.254;23.102;2023-07-29T09:09:54;95688.00;;;28.65;35.75
71621;BME280;59471;42.254;23.102;2023-07-29T09:12:20;95697.81;;;28.42;36.67
71621;BME280;59471;42.254;23.102;2023-07-29T09:14:46;95690.06;;;28.55;37.71
71621;BME280;59471;42.254;23.102;2023-07-29T09:17:12;95682.31;;;28.67;37.83
71621;BME280;59471;42.254;23.102;2023-07-29T09:19:37;95694.44;;;28.83;37.80
71621;BME280;59471;42.254;23.102;2023-07-29T09:22:03;95681.22;;;29.01;36.49
71621;BME280;59471;42.254;23.102;2023-07-29T09:24:29;95679.00;;;29.30;37.35
71621;BME280;59471;42.254;23.102;2023-07-29T09:26:57;95678.78;;;28.99;37.24
71621;BME280;59471;42.254;23.102;2023-07-29T09:29:23;95683.00;;;29.19;37.53
71621;BME280;59471;42.254;23.102;2023-07-29T09:31:49;95680.66;;;29.54;37.01
71621;BME280;59471;42.254;23.102;2023-07-29T09:34:15;95683.00;;;29.61;35.52
71621;BME280;59471;42.254;23.102;2023-07-29T09:36:42;95683.34;;;29.82;37.67
71621;BME280;59471;42.254;23.102;2023-07-29T09:39:12;95664.78;;;29.80;35.59
71621;BME280;59471;42.254;23.102;2023-07-29T09:41:40;95667.78;;;28.96;34.47
71621;BME280;59471;42.254;23.102;2023-07-29T09:44:07;95655.41;;;29.22;34.66
71621;BME280;59471;42.254;23.102;2023-07-29T09:46:34;95650.19;;;28.84;34.79
71621;BME280;59471;42.254;23.102;2023-07-29T09:49:05;95659.44;;;29.25;35.91
71621;BME280;59471;42.254;23.102;2023-07-29T09:51:31;95659.06;;;28.71;35.23
71621;BME280;59471;42.254;23.102;2023-07-29T09:53:57;95650.03;;;29.22;34.04
71621;BME280;59471;42.254;23.102;2023-07-29T09:56:27;95646.59;;;29.44;34.39
71621;BME280;59471;42.254;23.102;2023-07-29T09:58:55;95640.03;;;29.64;33.96
71621;BME280;59471;42.254;23.102;2023-07-29T10:01:22;95634.28;;;29.79;33.57
71621;BME280;59471;42.254;23.102;2023-07-29T10:03:49;95636.66;;;30.17;34.45
71621;BME280;59471;42.254;23.102;2023-07-29T10:06:15;95638.13;;;30.46;32.78
71621;BME280;59471;42.254;23.102;2023-07-29T10:08:43;95630.66;;;30.20;33.90
71621;BME280;59471;42.254;23.102;2023-07-29T10:11:10;95634.53;;;30.59;33.36
71621;BME280;59471;42.254;23.102;2023-07-29T10:13:37;95633.53;;;30.78;33.49
71621;BME280;59471;42.254;23.102;2023-07-29T10:16:04;95635.00;;;30.92;33.16
71621;BME280;59471;42.254;23.102;2023-07-29T10:18:33;95620.13;;;30.41;31.17
71621;BME280;59471;42.254;23.102;2023-07-29T10:21:01;95615.66;;;30.14;31.08
71621;BME280;59471;42.254;23.102;2023-07-29T10:23:34;95620.03;;;30.24;31.94
71621;BME280;59471;42.254;23.102;2023-07-29T10:26:05;95620.25;;;30.67;30.77
71621;BME280;59471;42.254;23.102;2023-07-29T10:28:39;95615.16;;;30.97;31.64
71621;BME280;59471;42.254;23.102;2023-07-29T10:31:06;95608.78;;;30.31;31.18
71621;BME280;59471;42.254;23.102;2023-07-29T10:33:33;95609.47;;;30.45;31.30
71621;BME280;59471;42.254;23.102;2023-07-29T10:35:59;95607.31;;;30.78;30.35
71621;BME280;59471;42.254;23.102;2023-07-29T10:38:25;95602.56;;;30.92;28.99
71621;BME280;59471;42.254;23.102;2023-07-29T10:40:53;95602.25;;;31.34;30.70
71621;BME280;59471;42.254;23.102;2023-07-29T10:45:55;95586.19;;;31.63;29.99
71621;BME280;59471;42.254;23.102;2023-07-29T10:54:11;95574.88;;;31.96;29.14
71621;BME280;59471;42.254;23.102;2023-07-29T10:56:42;95579.31;;;32.27;29.84
71621;BME280;59471;42.254;23.102;2023-07-29T11:01:39;95572.69;;;32.63;30.10
71621;BME280;59471;42.254;23.102;2023-07-29T11:07:25;95562.59;;;32.72;27.22
71621;BME280;59471;42.254;23.102;2023-07-29T11:10:03;95558.19;;;32.59;26.91
71621;BME280;59471;42.254;23.102;2023-07-29T11:20:23;95554.91;;;32.36;26.97
71621;BME280;59471;42.254;23.102;2023-07-29T11:22:53;95553.53;;;31.86;26.79
71621;BME280;59471;42.254;23.102;2023-07-29T11:25:20;95551.94;;;31.85;26.60
71621;BME280;59471;42.254;23.102;2023-07-29T11:27:47;95550.28;;;32.36;27.69
71621;BME280;59471;42.254;23.102;2023-07-29T11:30:14;95547.56;;;32.83;27.77
71621;BME280;59471;42.254;23.102;2023-07-29T11:32:42;95540.63;;;32.65;24.74
71621;BME280;59471;42.254;23.102;2023-07-29T11:35:11;95545.31;;;32.47;25.06
71621;BME280;59471;42.254;23.102;2023-07-29T11:37:42;95536.22;;;32.81;28.47
71621;BME280;59471;42.254;23.102;2023-07-29T11:40:09;95527.00;;;33.12;27.37
71621;BME280;59471;42.254;23.102;2023-07-29T11:42:37;95534.97;;;32.78;24.92
71621;BME280;59471;42.254;23.102;2023-07-29T11:45:04;95534.88;;;32.96;25.06
71621;BME280;59471;42.254;23.102;2023-07-29T11:47:33;95533.13;;;33.00;25.16
71621;BME280;59471;42.254;23.102;2023-07-29T11:50:06;95519.19;;;33.31;25.08
71621;BME280;59471;42.254;23.102;2023-07-29T11:52:37;95525.81;;;33.42;26.65
71621;BME280;59471;42.254;23.102;2023-07-29T11:55:04;95520.50;;;33.55;25.00
71621;BME280;59471;42.254;23.102;2023-07-29T11:57:35;95516.03;;;33.71;24.00
71621;BME280;59471;42.254;23.102;2023-07-29T12:00:03;95522.25;;;33.30;24.26
71621;BME280;59471;42.254;23.102;2023-07-29T12:02:32;95516.16;;;33.54;25.58
71621;BME280;59471;42.254;23.102;2023-07-29T12:04:59;95515.47;;;33.78;24.80
71621;BME280;59471;42.254;23.102;2023-07-29T12:07:24;95506.34;;;33.95;23.24
71621;BME280;59471;42.254;23.102;2023-07-29T12:09:50;95508.75;;;33.21;25.56
71621;BME280;59471;42.254;23.102;2023-07-29T12:12:17;95514.97;;;33.42;23.38
71621;BME280;59471;42.254;23.102;2023-07-29T12:14:45;95504.38;;;33.50;22.92
71621;BME280;59471;42.254;23.102;2023-07-29T12:17:12;95499.47;;;33.22;23.49
71621;BME280;59471;42.254;23.102;2023-07-29T12:19:38;95496.25;;;33.50;23.84
71621;BME280;59471;42.254;23.102;2023-07-29T12:22:07;95499.06;;;33.32;23.06
71621;BME280;59471;42.254;23.102;2023-07-29T12:24:36;95488.16;;;32.90;23.04
71621;BME280;59471;42.254;23.102;2023-07-29T12:27:03;95495.63;;;33.23;24.00
71621;BME280;59471;42.254;23.102;2023-07-29T12:29:30;95492.72;;;33.28;25.53
71621;BME280;59471;42.254;23.102;2023-07-29T12:32:03;95487.81;;;33.63;24.17
71621;BME280;59471;42.254;23.102;2023-07-29T12:34:30;95487.75;;;34.05;21.26
71621;BME280;59471;42.254;23.102;2023-07-29T12:36:58;95485.22;;;34.00;22.69
71621;BME280;59471;42.254;23.102;2023-07-29T12:39:29;95479.75;;;34.21;23.39
71621;BME280;59471;42.254;23.102;2023-07-29T12:41:56;95482.41;;;33.76;22.74
71621;BME280;59471;42.254;23.102;2023-07-29T12:44:24;95478.50;;;33.85;23.07
71621;BME280;59471;42.254;23.102;2023-07-29T12:46:51;95477.41;;;33.99;24.20
71621;BME280;59471;42.254;23.102;2023-07-29T12:49:17;95478.50;;;33.85;23.88
71621;BME280;59471;42.254;23.102;2023-07-29T12:51:43;95476.09;;;34.17;23.32
71621;BME280;59471;42.254;23.102;2023-07-29T12:54:09;95471.25;;;34.23;23.39
71621;BME280;59471;42.254;23.102;2023-07-29T12:56:35;95479.97;;;34.28;22.85
71621;BME280;59471;42.254;23.102;2023-07-29T12:59:01;95473.38;;;33.72;22.16
71621;BME280;59471;42.254;23.102;2023-07-29T13:01:28;95478.03;;;33.83;24.45
71621;BME280;59471;42.254;23.102;2023-07-29T13:03:54;95470.91;;;34.49;23.89
71621;BME280;59471;42.254;23.102;2023-07-29T13:06:20;95474.34;;;34.58;23.22
71621;BME280;59471;42.254;23.102;2023-07-29T13:08:47;95468.47;;;34.56;23.19
71621;BME280;59471;42.254;23.102;2023-07-29T13:11:14;95471.81;;;34.90;23.38
71621;BME280;59471;42.254;23.102;2023-07-29T13:13:40;95466.81;;;35.16;23.38
71621;BME280;59471;42.254;23.102;2023-07-29T13:16:06;95473.44;;;34.54;23.41
71621;BME280;59471;42.254;23.102;2023-07-29T13:18:32;95476.72;;;34.72;22.72
71621;BME280;59471;42.254;23.102;2023-07-29T13:20:58;95473.75;;;34.77;21.91
71621;BME280;59471;42.254;23.102;2023-07-29T13:23:25;95471.81;;;34.90;24.05
71621;BME280;59471;42.254;23.102;2023-07-29T13:25:51;95447.72;;;34.64;23.53
71621;BME280;59471;42.254;23.102;2023-07-29T13:28:16;95461.50;;;34.83;21.67
71621;BME280;59471;42.254;23.102;2023-07-29T13:30:42;95465.28;;;34.66;21.21
71621;BME280;59471;42.254;23.102;2023-07-29T13:33:08;95466.44;;;34.53;22.20
71621;BME280;59471;42.254;23.102;2023-07-29T13:35:34;95460.72;;;34.82;24.71
71621;BME280;59471;42.254;23.102;2023-07-29T13:38:00;95461.97;;;34.48;23.06
71621;BME280;59471;42.254;23.102;2023-07-29T13:40:26;95451.22;;;34.27;22.70
71621;BME280;59471;42.254;23.102;2023-07-29T13:42:52;95453.72;;;34.81;21.69
71621;BME280;59471;42.254;23.102;2023-07-29T13:45:18;95456.84;;;34.96;23.03
71621;BME280;59471;42.254;23.102;2023-07-29T13:47:44;95453.22;;;34.43;23.17
71621;BME280;59471;42.254;23.102;2023-07-29T13:50:09;95450.47;;;33.39;24.39
71621;BME280;59471;42.254;23.102;2023-07-29T13:52:38;95454.06;;;33.52;23.67
71621;BME280;59471;42.254;23.102;2023-07-29T13:55:04;95432.16;;;33.36;24.90
71621;BME280;59471;42.254;23.102;2023-07-29T13:57:31;95458.56;;;33.06;22.90
71621;BME280;59471;42.254;23.102;2023-07-29T13:59:57;95460.63;;;32.80;24.24
71621;BME280;59471;42.254;23.102;2023-07-29T14:02:22;95444.69;;;32.78;24.32
71621;BME280;59471;42.254;23.102;2023-07-29T14:04:48;95452.28;;;32.64;25.18
71621;BME280;59471;42.254;23.102;2023-07-29T14:07:13;95458.13;;;32.36;25.46
71621;BME280;59471;42.254;23.102;2023-07-29T14:09:39;95460.34;;;32.34;26.21
71621;BME280;59471;42.254;23.102;2023-07-29T14:12:06;95457.13;;;32.41;24.78
71621;BME280;59471;42.254;23.102;2023-07-29T14:14:32;95454.78;;;32.30;25.50
71621;BME280;59471;42.254;23.102;2023-07-29T14:16:57;95457.94;;;32.03;26.51
71621;BME280;59471;42.254;23.102;2023-07-29T14:19:23;95462.91;;;31.83;27.81
71621;BME280;59471;42.254;23.102;2023-07-29T14:21:49;95464.31;;;31.81;29.05
71621;BME280;59471;42.254;23.102;2023-07-29T14:24:14;95469.91;;;31.84;28.79
71621;BME280;59471;42.254;23.102;2023-07-29T14:26:42;95458.31;;;31.67;28.87
71621;BME280;59471;42.254;23.102;2023-07-29T14:29:08;95458.19;;;31.28;29.44
71621;BME280;59471;42.254;23.102;2023-07-29T15:14:55;95468.97;;;30.05;34.28
71621;BME280;59471;42.254;23.102;2023-07-29T15:17:20;95464.31;;;29.97;34.45
71621;BME280;59471;42.254;23.102;2023-07-29T15:19:46;95460.91;;;29.83;34.21
71621;BME280;59471;42.254;23.102;2023-07-29T15:22:15;95470.59;;;29.84;34.22
71621;BME280;59471;42.254;23.102;2023-07-29T15:24:41;95466.69;;;29.67;34.33
71621;BME280;59471;42.254;23.102;2023-07-29T15:27:09;95469.50;;;29.62;34.42
71621;BME280;59471;42.254;23.102;2023-07-29T15:29:35;95463.06;;;29.72;34.09
71621;BME280;59471;42.254;23.102;2023-07-29T15:32:01;95463.97;;;29.45;34.77
71621;BME280;59471;42.254;23.102;2023-07-29T15:34:27;95466.97;;;29.43;34.95
71621;BME280;59471;42.254;23.102;2023-07-29T15:36:57;95471.75;;;29.46;34.98
71621;BME280;59471;42.254;23.102;2023-07-29T15:39:23;95466.53;;;29.50;35.15
71621;BME280;59471;42.254;23.102;2023-07-29T15:41:49;95471.31;;;29.53;34.84
71621;BME280;59471;42.254;23.102;2023-07-29T15:44:14;95473.13;;;29.58;34.43
71621;BME280;59471;42.254;23.102;2023-07-29T15:46:40;95481.94;;;29.49;35.98
71621;BME280;59471;42.254;23.102;2023-07-29T15:49:05;95478.38;;;29.85;37.09
71621;BME280;59471;42.254;23.102;2023-07-29T15:51:31;95481.41;;;30.15;35.97
71621;BME280;59471;42.254;23.102;2023-07-29T15:53:56;95491.50;;;30.32;35.21
71621;BME280;59471;42.254;23.102;2023-07-29T15:56:22;95474.06;;;30.38;34.58
71621;BME280;59471;42.254;23.102;2023-07-29T15:58:47;95480.56;;;30.37;33.53
71621;BME280;59471;42.254;23.102;2023-07-29T16:01:13;95480.94;;;30.53;33.80
71621;BME280;59471;42.254;23.102;2023-07-29T16:03:39;95478.91;;;30.58;34.37
71621;BME280;59471;42.254;23.102;2023-07-29T16:06:06;95473.75;;;30.48;34.49
71621;BME280;59471;42.254;23.102;2023-07-29T16:08:32;95471.97;;;30.35;35.52
71621;BME280;59471;42.254;23.102;2023-07-29T16:10:58;95475.47;;;30.04;34.62
71621;BME280;59471;42.254;23.102;2023-07-29T16:13:23;95475.28;;;30.00;35.38
71621;BME280;59471;42.254;23.102;2023-07-29T16:15:49;95477.72;;;29.79;35.83
71621;BME280;59471;42.254;23.102;2023-07-29T16:18:15;95485.31;;;29.55;36.17
71621;BME280;59471;42.254;23.102;2023-07-29T16:20:41;95484.69;;;29.58;36.65
71621;BME280;59471;42.254;23.102;2023-07-29T16:41:55;95492.22;;;29.25;39.60
71621;BME280;59471;42.254;23.102;2023-07-29T16:44:21;95496.81;;;29.24;40.11
71621;BME280;59471;42.254;23.102;2023-07-29T16:46:47;95494.63;;;29.26;40.03
71621;BME280;59471;42.254;23.102;2023-07-29T16:49:12;95499.75;;;29.14;39.94
71621;BME280;59471;42.254;23.102;2023-07-29T16:51:38;95500.16;;;29.07;39.81
71621;BME280;59471;42.254;23.102;2023-07-29T16:54:03;95504.88;;;29.02;40.15
71621;BME280;59471;42.254;23.102;2023-07-29T16:56:29;95494.28;;;28.92;40.94